< < Back
Terminal Aerodrome Forecast


Current Version              Previous Versions:   1  2  3  4  5  6  7  8  9  

Terminal Aerodrome Forecast

584
FTUS42 KGSP 210538
TAFAND
TAF
KAND 210538Z 2106/2206 21005KT P6SM SCT100
     FM211300 27009KT P6SM SCT250
     FM211900 27012G19KT P6SM FEW250
     FM220200 32009KT P6SM FEW250=

Latest METAR

844
SAUS70 KWBC 220800 RRC
MTRAND
METAR KAND 220756Z AUTO 06004KT 10SM FEW044 14/08 A3005 RMK AO2 SLP167
T01440083


USA.gov is the U.S. government's official web portal to all federal, state and local government web resources and services.